sensor_id;sensor_type;location;lat;lon;timestamp;P1;durP1;ratioP1;P2;durP2;ratioP2
21822;SDS011;11074;48.596;9.238;2023-06-24T00:02:13;6.53;;;4.57;;
21822;SDS011;11074;48.596;9.238;2023-06-24T00:04:39;6.20;;;4.90;;
21822;SDS011;11074;48.596;9.238;2023-06-24T00:07:05;6.00;;;4.55;;
21822;SDS011;11074;48.596;9.238;2023-06-24T00:09:31;6.38;;;4.10;;
21822;SDS011;11074;48.596;9.238;2023-06-24T00:11:57;6.38;;;4.57;;
21822;SDS011;11074;48.596;9.238;2023-06-24T00:14:24;5.88;;;4.30;;
21822;SDS011;11074;48.596;9.238;2023-06-24T00:16:51;6.65;;;4.30;;
21822;SDS011;11074;48.596;9.238;2023-06-24T00:19:24;4.88;;;4.03;;
21822;SDS011;11074;48.596;9.238;2023-06-24T00:21:51;6.78;;;4.65;;
21822;SDS011;11074;48.596;9.238;2023-06-24T00:24:18;6.43;;;4.40;;
21822;SDS011;11074;48.596;9.238;2023-06-24T00:26:54;5.53;;;4.05;;
21822;SDS011;11074;48.596;9.238;2023-06-24T00:29:20;5.70;;;4.68;;
21822;SDS011;11074;48.596;9.238;2023-06-24T00:31:46;7.60;;;4.30;;
21822;SDS011;11074;48.596;9.238;2023-06-24T00:34:12;6.43;;;4.88;;
21822;SDS011;11074;48.596;9.238;2023-06-24T00:36:39;6.38;;;4.45;;
21822;SDS011;11074;48.596;9.238;2023-06-24T00:39:05;8.40;;;4.57;;
21822;SDS011;11074;48.596;9.238;2023-06-24T00:41:31;5.53;;;4.32;;
21822;SDS011;11074;48.596;9.238;2023-06-24T00:43:59;5.95;;;4.68;;
21822;SDS011;11074;48.596;9.238;2023-06-24T00:46:26;6.93;;;4.15;;
21822;SDS011;11074;48.596;9.238;2023-06-24T00:48:54;6.70;;;4.60;;
21822;SDS011;11074;48.596;9.238;2023-06-24T00:51:21;6.13;;;4.50;;
21822;SDS011;11074;48.596;9.238;2023-06-24T00:53:58;5.13;;;4.22;;
21822;SDS011;11074;48.596;9.238;2023-06-24T00:56:25;5.57;;;4.80;;
21822;SDS011;11074;48.596;9.238;2023-06-24T00:58:58;5.50;;;4.65;;
21822;SDS011;11074;48.596;9.238;2023-06-24T01:01:28;5.88;;;4.55;;
21822;SDS011;11074;48.596;9.238;2023-06-24T01:03:58;6.40;;;4.70;;
21822;SDS011;11074;48.596;9.238;2023-06-24T01:06:25;6.50;;;4.10;;
21822;SDS011;11074;48.596;9.238;2023-06-24T01:08:59;7.88;;;4.38;;
21822;SDS011;11074;48.596;9.238;2023-06-24T01:11:27;6.88;;;4.30;;
21822;SDS011;11074;48.596;9.238;2023-06-24T01:13:55;7.88;;;4.43;;
21822;SDS011;11074;48.596;9.238;2023-06-24T01:16:31;6.53;;;5.03;;
21822;SDS011;11074;48.596;9.238;2023-06-24T01:34:06;8.27;;;4.88;;
21822;SDS011;11074;48.596;9.238;2023-06-24T01:36:50;7.90;;;4.95;;
21822;SDS011;11074;48.596;9.238;2023-06-24T01:39:46;6.78;;;4.50;;
21822;SDS011;11074;48.596;9.238;2023-06-24T01:42:20;5.57;;;4.40;;
21822;SDS011;11074;48.596;9.238;2023-06-24T01:44:48;9.63;;;4.88;;
21822;SDS011;11074;48.596;9.238;2023-06-24T01:47:19;6.30;;;4.25;;
21822;SDS011;11074;48.596;9.238;2023-06-24T01:49:54;7.47;;;5.10;;
21822;SDS011;11074;48.596;9.238;2023-06-24T01:52:25;6.15;;;4.70;;
21822;SDS011;11074;48.596;9.238;2023-06-24T01:54:56;7.22;;;5.05;;
21822;SDS011;11074;48.596;9.238;2023-06-24T01:57:25;7.65;;;4.68;;
21822;SDS011;11074;48.596;9.238;2023-06-24T01:59:53;6.25;;;4.72;;
21822;SDS011;11074;48.596;9.238;2023-06-24T02:02:20;7.35;;;4.68;;
21822;SDS011;11074;48.596;9.238;2023-06-24T02:04:48;7.05;;;4.55;;
21822;SDS011;11074;48.596;9.238;2023-06-24T02:07:17;7.72;;;4.25;;
21822;SDS011;11074;48.596;9.238;2023-06-24T02:09:45;5.65;;;4.60;;
21822;SDS011;11074;48.596;9.238;2023-06-24T02:12:12;7.45;;;4.68;;
21822;SDS011;11074;48.596;9.238;2023-06-24T02:14:38;6.55;;;4.80;;
21822;SDS011;11074;48.596;9.238;2023-06-24T02:17:08;6.10;;;4.78;;
21822;SDS011;11074;48.596;9.238;2023-06-24T02:19:36;7.40;;;5.25;;
21822;SDS011;11074;48.596;9.238;2023-06-24T02:22:04;6.22;;;4.93;;
21822;SDS011;11074;48.596;9.238;2023-06-24T02:24:34;7.60;;;4.88;;
21822;SDS011;11074;48.596;9.238;2023-06-24T02:27:03;7.20;;;4.65;;
21822;SDS011;11074;48.596;9.238;2023-06-24T02:29:32;6.47;;;4.85;;
21822;SDS011;11074;48.596;9.238;2023-06-24T02:32:01;7.38;;;4.88;;
21822;SDS011;11074;48.596;9.238;2023-06-24T02:34:27;7.68;;;5.03;;
21822;SDS011;11074;48.596;9.238;2023-06-24T02:36:53;7.78;;;4.88;;
21822;SDS011;11074;48.596;9.238;2023-06-24T02:39:19;6.22;;;5.20;;
21822;SDS011;11074;48.596;9.238;2023-06-24T02:41:45;6.93;;;5.00;;
21822;SDS011;11074;48.596;9.238;2023-06-24T02:44:12;6.72;;;4.63;;
21822;SDS011;11074;48.596;9.238;2023-06-24T02:46:38;6.53;;;5.40;;
21822;SDS011;11074;48.596;9.238;2023-06-24T02:49:08;6.93;;;4.88;;
21822;SDS011;11074;48.596;9.238;2023-06-24T02:51:38;6.85;;;4.95;;
21822;SDS011;11074;48.596;9.238;2023-06-24T02:54:04;8.18;;;5.05;;
21822;SDS011;11074;48.596;9.238;2023-06-24T02:56:31;7.53;;;5.35;;
21822;SDS011;11074;48.596;9.238;2023-06-24T02:58:57;8.05;;;4.97;;
21822;SDS011;11074;48.596;9.238;2023-06-24T03:01:23;8.20;;;5.20;;
21822;SDS011;11074;48.596;9.238;2023-06-24T03:03:54;8.48;;;5.25;;
21822;SDS011;11074;48.596;9.238;2023-06-24T03:06:21;6.88;;;5.43;;
21822;SDS011;11074;48.596;9.238;2023-06-24T03:08:49;6.90;;;4.97;;
21822;SDS011;11074;48.596;9.238;2023-06-24T03:11:16;8.00;;;5.20;;
21822;SDS011;11074;48.596;9.238;2023-06-24T03:13:42;9.40;;;5.30;;
21822;SDS011;11074;48.596;9.238;2023-06-24T03:16:09;7.25;;;4.63;;
21822;SDS011;11074;48.596;9.238;2023-06-24T03:18:46;7.25;;;4.90;;
21822;SDS011;11074;48.596;9.238;2023-06-24T03:21:12;7.75;;;5.32;;
21822;SDS011;11074;48.596;9.238;2023-06-24T03:23:37;7.63;;;4.97;;
21822;SDS011;11074;48.596;9.238;2023-06-24T03:26:04;7.15;;;5.30;;
21822;SDS011;11074;48.596;9.238;2023-06-24T03:28:32;6.65;;;5.00;;
21822;SDS011;11074;48.596;9.238;2023-06-24T03:30:58;5.85;;;4.95;;
21822;SDS011;11074;48.596;9.238;2023-06-24T03:33:24;6.40;;;4.82;;
21822;SDS011;11074;48.596;9.238;2023-06-24T03:35:51;6.97;;;5.20;;
21822;SDS011;11074;48.596;9.238;2023-06-24T03:38:18;8.48;;;5.47;;
21822;SDS011;11074;48.596;9.238;2023-06-24T03:40:43;7.65;;;4.65;;
21822;SDS011;11074;48.596;9.238;2023-06-24T03:43:09;8.27;;;5.38;;
21822;SDS011;11074;48.596;9.238;2023-06-24T03:45:35;7.28;;;4.85;;
21822;SDS011;11074;48.596;9.238;2023-06-24T03:48:01;6.05;;;4.80;;
21822;SDS011;11074;48.596;9.238;2023-06-24T03:50:26;6.35;;;4.75;;
21822;SDS011;11074;48.596;9.238;2023-06-24T03:52:52;6.75;;;5.00;;
21822;SDS011;11074;48.596;9.238;2023-06-24T03:55:18;6.63;;;5.05;;
21822;SDS011;11074;48.596;9.238;2023-06-24T03:57:43;6.65;;;5.13;;
21822;SDS011;11074;48.596;9.238;2023-06-24T04:00:09;8.35;;;4.85;;
21822;SDS011;11074;48.596;9.238;2023-06-24T04:02:41;6.25;;;4.57;;
21822;SDS011;11074;48.596;9.238;2023-06-24T04:05:08;9.75;;;5.70;;
21822;SDS011;11074;48.596;9.238;2023-06-24T04:07:35;6.10;;;4.90;;
21822;SDS011;11074;48.596;9.238;2023-06-24T04:10:04;7.78;;;4.80;;
21822;SDS011;11074;48.596;9.238;2023-06-24T04:15:02;8.07;;;4.85;;
21822;SDS011;11074;48.596;9.238;2023-06-24T04:17:29;10.52;;;5.80;;
21822;SDS011;11074;48.596;9.238;2023-06-24T04:19:54;5.88;;;4.80;;
21822;SDS011;11074;48.596;9.238;2023-06-24T04:22:21;7.32;;;5.40;;
21822;SDS011;11074;48.596;9.238;2023-06-24T04:24:47;7.85;;;5.32;;
21822;SDS011;11074;48.596;9.238;2023-06-24T04:27:13;8.95;;;5.35;;
21822;SDS011;11074;48.596;9.238;2023-06-24T04:29:38;8.05;;;5.22;;
21822;SDS011;11074;48.596;9.238;2023-06-24T04:32:04;6.47;;;5.30;;
21822;SDS011;11074;48.596;9.238;2023-06-24T04:34:30;7.85;;;5.30;;
21822;SDS011;11074;48.596;9.238;2023-06-24T04:36:57;8.40;;;5.22;;
21822;SDS011;11074;48.596;9.238;2023-06-24T04:39:23;9.70;;;5.80;;
21822;SDS011;11074;48.596;9.238;2023-06-24T04:41:52;5.72;;;5.07;;
21822;SDS011;11074;48.596;9.238;2023-06-24T04:44:21;7.30;;;5.82;;
21822;SDS011;11074;48.596;9.238;2023-06-24T04:46:47;9.18;;;5.57;;
21822;SDS011;11074;48.596;9.238;2023-06-24T04:49:14;8.55;;;5.63;;
21822;SDS011;11074;48.596;9.238;2023-06-24T04:51:40;8.80;;;6.10;;
21822;SDS011;11074;48.596;9.238;2023-06-24T04:54:07;6.93;;;5.30;;
21822;SDS011;11074;48.596;9.238;2023-06-24T04:56:33;8.88;;;5.45;;
21822;SDS011;11074;48.596;9.238;2023-06-24T04:59:02;7.03;;;5.45;;
21822;SDS011;11074;48.596;9.238;2023-06-24T05:01:28;7.68;;;5.28;;
21822;SDS011;11074;48.596;9.238;2023-06-24T05:03:57;8.57;;;6.25;;
21822;SDS011;11074;48.596;9.238;2023-06-24T05:06:26;9.05;;;6.63;;
21822;SDS011;11074;48.596;9.238;2023-06-24T05:08:52;7.28;;;5.85;;
21822;SDS011;11074;48.596;9.238;2023-06-24T05:11:18;10.07;;;6.30;;
21822;SDS011;11074;48.596;9.238;2023-06-24T05:13:49;7.28;;;5.90;;
21822;SDS011;11074;48.596;9.238;2023-06-24T05:16:15;8.80;;;6.00;;
21822;SDS011;11074;48.596;9.238;2023-06-24T05:18:44;8.77;;;6.82;;
21822;SDS011;11074;48.596;9.238;2023-06-24T05:21:10;7.82;;;5.57;;
21822;SDS011;11074;48.596;9.238;2023-06-24T05:23:36;9.35;;;5.70;;
21822;SDS011;11074;48.596;9.238;2023-06-24T05:26:03;7.53;;;5.72;;
21822;SDS011;11074;48.596;9.238;2023-06-24T05:28:33;8.75;;;5.38;;
21822;SDS011;11074;48.596;9.238;2023-06-24T05:31:02;10.40;;;6.15;;
21822;SDS011;11074;48.596;9.238;2023-06-24T05:33:28;9.35;;;5.95;;
21822;SDS011;11074;48.596;9.238;2023-06-24T05:35:54;8.63;;;6.20;;
21822;SDS011;11074;48.596;9.238;2023-06-24T05:38:20;7.28;;;5.82;;
21822;SDS011;11074;48.596;9.238;2023-06-24T05:40:49;9.38;;;6.18;;
21822;SDS011;11074;48.596;9.238;2023-06-24T05:43:15;7.93;;;7.03;;
21822;SDS011;11074;48.596;9.238;2023-06-24T05:45:42;7.00;;;5.78;;
21822;SDS011;11074;48.596;9.238;2023-06-24T05:48:11;8.02;;;6.15;;
21822;SDS011;11074;48.596;9.238;2023-06-24T05:50:42;7.88;;;5.95;;
21822;SDS011;11074;48.596;9.238;2023-06-24T05:53:12;9.68;;;6.47;;
21822;SDS011;11074;48.596;9.238;2023-06-24T05:55:38;8.95;;;6.47;;
21822;SDS011;11074;48.596;9.238;2023-06-24T05:58:04;6.43;;;5.38;;
21822;SDS011;11074;48.596;9.238;2023-06-24T06:00:34;8.57;;;5.80;;
21822;SDS011;11074;48.596;9.238;2023-06-24T06:03:02;7.90;;;5.95;;
21822;SDS011;11074;48.596;9.238;2023-06-24T06:05:28;8.23;;;6.28;;
21822;SDS011;11074;48.596;9.238;2023-06-24T06:07:54;10.82;;;6.50;;
21822;SDS011;11074;48.596;9.238;2023-06-24T06:10:20;7.13;;;5.80;;
21822;SDS011;11074;48.596;9.238;2023-06-24T06:12:47;10.90;;;6.30;;
21822;SDS011;11074;48.596;9.238;2023-06-24T06:15:13;8.88;;;5.88;;
21822;SDS011;11074;48.596;9.238;2023-06-24T06:17:41;6.72;;;5.60;;
21822;SDS011;11074;48.596;9.238;2023-06-24T06:20:10;6.40;;;5.68;;
21822;SDS011;11074;48.596;9.238;2023-06-24T06:22:37;9.38;;;5.95;;
21822;SDS011;11074;48.596;9.238;2023-06-24T06:25:06;9.57;;;5.82;;
21822;SDS011;11074;48.596;9.238;2023-06-24T06:27:33;7.63;;;5.88;;
21822;SDS011;11074;48.596;9.238;2023-06-24T06:29:59;9.73;;;6.72;;
21822;SDS011;11074;48.596;9.238;2023-06-24T06:32:28;6.65;;;5.75;;
21822;SDS011;11074;48.596;9.238;2023-06-24T06:34:59;6.97;;;5.53;;
21822;SDS011;11074;48.596;9.238;2023-06-24T06:37:30;8.40;;;6.00;;
21822;SDS011;11074;48.596;9.238;2023-06-24T06:39:56;7.00;;;5.65;;
21822;SDS011;11074;48.596;9.238;2023-06-24T06:42:34;8.15;;;5.47;;
21822;SDS011;11074;48.596;9.238;2023-06-24T06:45:00;8.32;;;6.20;;
21822;SDS011;11074;48.596;9.238;2023-06-24T06:47:28;8.27;;;5.90;;
21822;SDS011;11074;48.596;9.238;2023-06-24T06:49:54;6.03;;;5.18;;
21822;SDS011;11074;48.596;9.238;2023-06-24T06:52:20;6.57;;;5.85;;
21822;SDS011;11074;48.596;9.238;2023-06-24T06:54:46;9.40;;;6.22;;
21822;SDS011;11074;48.596;9.238;2023-06-24T06:57:13;8.10;;;5.90;;
21822;SDS011;11074;48.596;9.238;2023-06-24T06:59:39;7.43;;;5.28;;
21822;SDS011;11074;48.596;9.238;2023-06-24T07:02:05;6.07;;;5.30;;
21822;SDS011;11074;48.596;9.238;2023-06-24T07:04:31;7.20;;;5.00;;
21822;SDS011;11074;48.596;9.238;2023-06-24T07:06:57;6.45;;;5.40;;
21822;SDS011;11074;48.596;9.238;2023-06-24T07:09:23;7.60;;;5.05;;
21822;SDS011;11074;48.596;9.238;2023-06-24T07:11:52;6.93;;;4.68;;
21822;SDS011;11074;48.596;9.238;2023-06-24T07:14:22;6.03;;;5.18;;
21822;SDS011;11074;48.596;9.238;2023-06-24T07:16:48;6.97;;;4.90;;
21822;SDS011;11074;48.596;9.238;2023-06-24T07:19:14;8.10;;;5.70;;
21822;SDS011;11074;48.596;9.238;2023-06-24T07:21:40;8.15;;;5.07;;
21822;SDS011;11074;48.596;9.238;2023-06-24T07:24:05;9.25;;;5.28;;
21822;SDS011;11074;48.596;9.238;2023-06-24T07:26:31;6.55;;;5.10;;
21822;SDS011;11074;48.596;9.238;2023-06-24T07:28:57;7.43;;;4.85;;
21822;SDS011;11074;48.596;9.238;2023-06-24T07:31:23;7.65;;;4.90;;
21822;SDS011;11074;48.596;9.238;2023-06-24T07:33:49;5.30;;;4.38;;
21822;SDS011;11074;48.596;9.238;2023-06-24T07:36:15;7.22;;;4.20;;
21822;SDS011;11074;48.596;9.238;2023-06-24T07:38:40;6.22;;;4.07;;
21822;SDS011;11074;48.596;9.238;2023-06-24T07:41:07;6.18;;;3.70;;
21822;SDS011;11074;48.596;9.238;2023-06-24T07:43:32;5.13;;;4.07;;
21822;SDS011;11074;48.596;9.238;2023-06-24T07:45:58;5.43;;;4.00;;
21822;SDS011;11074;48.596;9.238;2023-06-24T07:48:24;5.97;;;3.92;;
21822;SDS011;11074;48.596;9.238;2023-06-24T07:50:49;4.70;;;3.97;;
21822;SDS011;11074;48.596;9.238;2023-06-24T07:53:15;9.40;;;3.80;;
21822;SDS011;11074;48.596;9.238;2023-06-24T07:55:41;4.72;;;3.65;;
21822;SDS011;11074;48.596;9.238;2023-06-24T07:58:07;5.20;;;4.22;;
21822;SDS011;11074;48.596;9.238;2023-06-24T08:00:33;5.10;;;4.10;;
21822;SDS011;11074;48.596;9.238;2023-06-24T08:02:58;5.90;;;4.05;;
21822;SDS011;11074;48.596;9.238;2023-06-24T08:05:25;5.03;;;3.92;;
21822;SDS011;11074;48.596;9.238;2023-06-24T08:07:51;7.57;;;3.80;;
21822;SDS011;11074;48.596;9.238;2023-06-24T08:10:19;6.05;;;3.35;;
21822;SDS011;11074;48.596;9.238;2023-06-24T08:12:45;5.18;;;3.60;;
21822;SDS011;11074;48.596;9.238;2023-06-24T08:15:11;5.25;;;3.78;;
21822;SDS011;11074;48.596;9.238;2023-06-24T08:17:38;6.22;;;3.45;;
21822;SDS011;11074;48.596;9.238;2023-06-24T08:20:04;4.88;;;3.40;;
21822;SDS011;11074;48.596;9.238;2023-06-24T08:22:30;3.88;;;3.35;;
21822;SDS011;11074;48.596;9.238;2023-06-24T08:24:56;4.47;;;3.65;;
21822;SDS011;11074;48.596;9.238;2023-06-24T08:27:23;4.43;;;3.58;;
21822;SDS011;11074;48.596;9.238;2023-06-24T08:29:48;4.72;;;3.80;;
21822;SDS011;11074;48.596;9.238;2023-06-24T08:32:14;6.90;;;3.65;;
21822;SDS011;11074;48.596;9.238;2023-06-24T08:34:40;4.90;;;3.85;;
21822;SDS011;11074;48.596;9.238;2023-06-24T08:37:05;5.28;;;3.30;;
21822;SDS011;11074;48.596;9.238;2023-06-24T08:39:31;4.43;;;3.53;;
21822;SDS011;11074;48.596;9.238;2023-06-24T08:41:57;4.38;;;3.63;;
21822;SDS011;11074;48.596;9.238;2023-06-24T08:44:22;5.43;;;3.60;;
21822;SDS011;11074;48.596;9.238;2023-06-24T08:46:48;5.70;;;3.90;;
21822;SDS011;11074;48.596;9.238;2023-06-24T08:49:36;6.82;;;3.80;;
21822;SDS011;11074;48.596;9.238;2023-06-24T08:52:11;4.30;;;3.63;;
21822;SDS011;11074;48.596;9.238;2023-06-24T08:54:41;6.22;;;3.80;;
21822;SDS011;11074;48.596;9.238;2023-06-24T08:57:13;3.70;;;3.33;;
21822;SDS011;11074;48.596;9.238;2023-06-24T08:59:40;4.45;;;3.55;;
21822;SDS011;11074;48.596;9.238;2023-06-24T09:02:07;5.07;;;3.85;;
21822;SDS011;11074;48.596;9.238;2023-06-24T09:04:33;6.38;;;3.45;;
21822;SDS011;11074;48.596;9.238;2023-06-24T09:07:00;4.45;;;3.45;;
21822;SDS011;11074;48.596;9.238;2023-06-24T09:09:25;4.68;;;3.30;;
21822;SDS011;11074;48.596;9.238;2023-06-24T09:11:54;4.18;;;3.10;;
21822;SDS011;11074;48.596;9.238;2023-06-24T09:14:22;4.88;;;3.55;;
21822;SDS011;11074;48.596;9.238;2023-06-24T09:16:54;4.07;;;3.45;;
21822;SDS011;11074;48.596;9.238;2023-06-24T09:19:23;4.40;;;3.25;;
21822;SDS011;11074;48.596;9.238;2023-06-24T09:21:54;4.43;;;3.10;;
21822;SDS011;11074;48.596;9.238;2023-06-24T09:24:21;3.45;;;3.13;;
21822;SDS011;11074;48.596;9.238;2023-06-24T09:26:46;6.57;;;3.17;;
21822;SDS011;11074;48.596;9.238;2023-06-24T09:29:13;4.70;;;3.25;;
21822;SDS011;11074;48.596;9.238;2023-06-24T09:31:48;5.05;;;2.95;;
21822;SDS011;11074;48.596;9.238;2023-06-24T09:34:15;5.43;;;3.10;;
21822;SDS011;11074;48.596;9.238;2023-06-24T09:36:42;5.25;;;3.40;;
21822;SDS011;11074;48.596;9.238;2023-06-24T09:39:17;3.58;;;3.03;;
21822;SDS011;11074;48.596;9.238;2023-06-24T09:41:42;4.07;;;3.10;;
21822;SDS011;11074;48.596;9.238;2023-06-24T09:44:14;4.13;;;3.22;;
21822;SDS011;11074;48.596;9.238;2023-06-24T09:46:42;4.75;;;3.25;;
21822;SDS011;11074;48.596;9.238;2023-06-24T09:49:08;4.22;;;3.03;;
21822;SDS011;11074;48.596;9.238;2023-06-24T09:51:36;4.35;;;3.17;;
21822;SDS011;11074;48.596;9.238;2023-06-24T09:54:05;5.25;;;3.10;;
21822;SDS011;11074;48.596;9.238;2023-06-24T09:56:35;4.60;;;3.30;;
21822;SDS011;11074;48.596;9.238;2023-06-24T09:59:04;4.93;;;3.38;;
21822;SDS011;11074;48.596;9.238;2023-06-24T10:01:43;4.15;;;3.05;;
21822;SDS011;11074;48.596;9.238;2023-06-24T10:04:12;4.70;;;2.85;;
21822;SDS011;11074;48.596;9.238;2023-06-24T10:06:42;3.45;;;2.80;;
21822;SDS011;11074;48.596;9.238;2023-06-24T10:09:07;4.68;;;3.00;;
21822;SDS011;11074;48.596;9.238;2023-06-24T10:11:34;4.20;;;2.90;;
21822;SDS011;11074;48.596;9.238;2023-06-24T10:13:59;4.45;;;3.25;;
21822;SDS011;11074;48.596;9.238;2023-06-24T10:16:26;4.68;;;3.00;;
21822;SDS011;11074;48.596;9.238;2023-06-24T10:18:52;4.20;;;2.95;;
21822;SDS011;11074;48.596;9.238;2023-06-24T10:21:28;3.85;;;2.90;;
21822;SDS011;11074;48.596;9.238;2023-06-24T10:24:35;3.28;;;2.65;;
21822;SDS011;11074;48.596;9.238;2023-06-24T10:27:05;4.45;;;3.15;;
21822;SDS011;11074;48.596;9.238;2023-06-24T10:29:34;3.78;;;2.88;;
21822;SDS011;11074;48.596;9.238;2023-06-24T10:32:04;3.67;;;2.90;;
21822;SDS011;11074;48.596;9.238;2023-06-24T10:34:32;2.88;;;2.47;;
21822;SDS011;11074;48.596;9.238;2023-06-24T10:37:19;4.03;;;2.95;;
21822;SDS011;11074;48.596;9.238;2023-06-24T10:39:51;4.30;;;2.50;;
21822;SDS011;11074;48.596;9.238;2023-06-24T10:47:38;3.90;;;2.80;;
21822;SDS011;11074;48.596;9.238;2023-06-24T10:50:06;3.90;;;2.53;;
21822;SDS011;11074;48.596;9.238;2023-06-24T10:52:38;3.58;;;2.70;;
21822;SDS011;11074;48.596;9.238;2023-06-24T10:55:06;4.75;;;3.10;;
21822;SDS011;11074;48.596;9.238;2023-06-24T10:57:33;4.30;;;3.10;;
21822;SDS011;11074;48.596;9.238;2023-06-24T10:59:59;4.53;;;2.97;;
21822;SDS011;11074;48.596;9.238;2023-06-24T11:02:28;4.47;;;2.80;;
21822;SDS011;11074;48.596;9.238;2023-06-24T11:04:58;4.43;;;2.92;;
21822;SDS011;11074;48.596;9.238;2023-06-24T11:07:35;3.90;;;2.70;;
21822;SDS011;11074;48.596;9.238;2023-06-24T11:10:15;3.70;;;2.92;;
21822;SDS011;11074;48.596;9.238;2023-06-24T11:12:42;5.25;;;3.10;;
21822;SDS011;11074;48.596;9.238;2023-06-24T11:15:09;4.18;;;2.75;;
21822;SDS011;11074;48.596;9.238;2023-06-24T11:17:37;3.63;;;3.03;;
21822;SDS011;11074;48.596;9.238;2023-06-24T11:20:11;4.90;;;2.65;;
21822;SDS011;11074;48.596;9.238;2023-06-24T11:22:42;4.22;;;2.70;;
21822;SDS011;11074;48.596;9.238;2023-06-24T11:25:18;3.35;;;2.67;;
21822;SDS011;11074;48.596;9.238;2023-06-24T11:27:46;3.38;;;2.35;;
21822;SDS011;11074;48.596;9.238;2023-06-24T11:30:15;3.67;;;2.20;;
21822;SDS011;11074;48.596;9.238;2023-06-24T11:32:42;2.97;;;2.38;;
21822;SDS011;11074;48.596;9.238;2023-06-24T11:35:10;4.47;;;2.63;;
21822;SDS011;11074;48.596;9.238;2023-06-24T11:37:40;5.13;;;3.10;;
21822;SDS011;11074;48.596;9.238;2023-06-24T11:40:08;3.95;;;2.40;;
21822;SDS011;11074;48.596;9.238;2023-06-24T11:42:36;4.35;;;2.47;;
21822;SDS011;11074;48.596;9.238;2023-06-24T11:45:05;4.38;;;2.70;;
21822;SDS011;11074;48.596;9.238;2023-06-24T11:47:34;3.28;;;2.58;;
21822;SDS011;11074;48.596;9.238;2023-06-24T11:50:02;3.80;;;2.80;;
21822;SDS011;11074;48.596;9.238;2023-06-24T11:55:01;5.65;;;2.80;;
21822;SDS011;11074;48.596;9.238;2023-06-24T11:57:46;4.10;;;2.78;;
21822;SDS011;11074;48.596;9.238;2023-06-24T12:00:20;3.35;;;2.60;;
21822;SDS011;11074;48.596;9.238;2023-06-24T12:02:55;4.03;;;2.40;;
21822;SDS011;11074;48.596;9.238;2023-06-24T12:05:24;4.47;;;2.47;;
21822;SDS011;11074;48.596;9.238;2023-06-24T12:07:54;6.13;;;2.60;;
21822;SDS011;11074;48.596;9.238;2023-06-24T12:10:25;4.78;;;2.50;;
21822;SDS011;11074;48.596;9.238;2023-06-24T12:12:51;3.55;;;2.47;;
21822;SDS011;11074;48.596;9.238;2023-06-24T12:15:17;3.10;;;2.38;;
21822;SDS011;11074;48.596;9.238;2023-06-24T12:17:44;3.00;;;2.20;;
21822;SDS011;11074;48.596;9.238;2023-06-24T12:20:09;2.88;;;2.30;;
21822;SDS011;11074;48.596;9.238;2023-06-24T12:22:36;3.53;;;2.45;;
21822;SDS011;11074;48.596;9.238;2023-06-24T12:25:01;3.15;;;2.40;;
21822;SDS011;11074;48.596;9.238;2023-06-24T12:27:28;3.42;;;2.50;;
21822;SDS011;11074;48.596;9.238;2023-06-24T12:29:54;4.15;;;2.40;;
21822;SDS011;11074;48.596;9.238;2023-06-24T12:32:20;3.17;;;2.45;;
21822;SDS011;11074;48.596;9.238;2023-06-24T12:34:45;3.63;;;1.95;;
21822;SDS011;11074;48.596;9.238;2023-06-24T12:37:11;4.47;;;2.30;;
21822;SDS011;11074;48.596;9.238;2023-06-24T12:39:37;2.67;;;2.28;;
21822;SDS011;11074;48.596;9.238;2023-06-24T12:42:02;3.00;;;2.15;;
21822;SDS011;11074;48.596;9.238;2023-06-24T12:44:28;2.85;;;2.30;;
21822;SDS011;11074;48.596;9.238;2023-06-24T12:46:54;3.05;;;2.17;;
21822;SDS011;11074;48.596;9.238;2023-06-24T12:49:20;3.17;;;2.33;;
21822;SDS011;11074;48.596;9.238;2023-06-24T12:51:45;2.88;;;2.10;;
21822;SDS011;11074;48.596;9.238;2023-06-24T12:54:11;3.40;;;2.28;;
21822;SDS011;11074;48.596;9.238;2023-06-24T12:56:37;3.35;;;2.10;;
21822;SDS011;11074;48.596;9.238;2023-06-24T12:59:02;2.58;;;2.05;;
21822;SDS011;11074;48.596;9.238;2023-06-24T13:01:28;3.38;;;2.30;;
21822;SDS011;11074;48.596;9.238;2023-06-24T13:03:54;4.25;;;2.50;;
21822;SDS011;11074;48.596;9.238;2023-06-24T13:06:19;3.42;;;2.50;;
21822;SDS011;11074;48.596;9.238;2023-06-24T13:08:45;3.75;;;2.13;;
21822;SDS011;11074;48.596;9.238;2023-06-24T13:11:10;4.38;;;2.30;;
21822;SDS011;11074;48.596;9.238;2023-06-24T13:13:36;3.13;;;2.63;;
21822;SDS011;11074;48.596;9.238;2023-06-24T13:16:02;3.03;;;2.35;;
21822;SDS011;11074;48.596;9.238;2023-06-24T13:18:27;3.22;;;2.17;;
21822;SDS011;11074;48.596;9.238;2023-06-24T13:20:53;5.32;;;2.30;;
21822;SDS011;11074;48.596;9.238;2023-06-24T13:23:19;3.58;;;2.45;;
21822;SDS011;11074;48.596;9.238;2023-06-24T13:25:44;3.08;;;2.33;;
21822;SDS011;11074;48.596;9.238;2023-06-24T13:28:10;4.00;;;2.40;;
21822;SDS011;11074;48.596;9.238;2023-06-24T13:30:36;2.88;;;2.40;;
21822;SDS011;11074;48.596;9.238;2023-06-24T13:33:01;3.33;;;2.20;;
21822;SDS011;11074;48.596;9.238;2023-06-24T13:35:27;3.35;;;2.38;;
21822;SDS011;11074;48.596;9.238;2023-06-24T13:37:53;3.78;;;2.00;;
21822;SDS011;11074;48.596;9.238;2023-06-24T13:40:19;3.65;;;2.70;;
21822;SDS011;11074;48.596;9.238;2023-06-24T13:42:44;4.07;;;2.20;;
21822;SDS011;11074;48.596;9.238;2023-06-24T13:45:10;4.03;;;2.60;;
21822;SDS011;11074;48.596;9.238;2023-06-24T13:47:36;3.08;;;2.40;;
21822;SDS011;11074;48.596;9.238;2023-06-24T13:50:02;3.25;;;2.30;;
21822;SDS011;11074;48.596;9.238;2023-06-24T13:52:29;3.53;;;2.28;;
21822;SDS011;11074;48.596;9.238;2023-06-24T13:54:54;2.90;;;2.40;;
21822;SDS011;11074;48.596;9.238;2023-06-24T13:57:20;3.97;;;2.47;;
21822;SDS011;11074;48.596;9.238;2023-06-24T13:59:46;2.85;;;2.47;;
21822;SDS011;11074;48.596;9.238;2023-06-24T14:02:12;4.45;;;2.17;;
21822;SDS011;11074;48.596;9.238;2023-06-24T14:04:38;3.72;;;2.47;;
21822;SDS011;11074;48.596;9.238;2023-06-24T14:07:06;3.30;;;2.50;;
21822;SDS011;11074;48.596;9.238;2023-06-24T14:09:33;4.75;;;2.83;;
21822;SDS011;11074;48.596;9.238;2023-06-24T14:11:59;3.20;;;2.38;;
21822;SDS011;11074;48.596;9.238;2023-06-24T14:14:25;3.30;;;2.70;;
21822;SDS011;11074;48.596;9.238;2023-06-24T14:16:51;3.42;;;2.70;;
21822;SDS011;11074;48.596;9.238;2023-06-24T14:19:17;2.92;;;2.35;;
21822;SDS011;11074;48.596;9.238;2023-06-24T14:21:42;2.75;;;2.47;;
21822;SDS011;11074;48.596;9.238;2023-06-24T14:24:09;3.75;;;2.60;;
21822;SDS011;11074;48.596;9.238;2023-06-24T14:26:36;3.78;;;2.40;;
21822;SDS011;11074;48.596;9.238;2023-06-24T14:29:02;3.08;;;2.33;;
21822;SDS011;11074;48.596;9.238;2023-06-24T14:31:28;3.42;;;2.67;;
21822;SDS011;11074;48.596;9.238;2023-06-24T14:33:53;3.30;;;2.30;;
21822;SDS011;11074;48.596;9.238;2023-06-24T14:36:19;4.55;;;2.60;;
21822;SDS011;11074;48.596;9.238;2023-06-24T14:38:45;3.45;;;2.67;;
21822;SDS011;11074;48.596;9.238;2023-06-24T14:41:10;3.83;;;2.45;;
21822;SDS011;11074;48.596;9.238;2023-06-24T14:43:36;5.63;;;2.60;;
21822;SDS011;11074;48.596;9.238;2023-06-24T14:46:02;3.03;;;2.42;;
21822;SDS011;11074;48.596;9.238;2023-06-24T14:48:28;3.83;;;2.60;;
21822;SDS011;11074;48.596;9.238;2023-06-24T14:50:53;2.65;;;2.30;;
21822;SDS011;11074;48.596;9.238;2023-06-24T14:53:19;5.38;;;2.97;;
21822;SDS011;11074;48.596;9.238;2023-06-24T14:55:45;3.63;;;2.65;;
21822;SDS011;11074;48.596;9.238;2023-06-24T14:58:11;3.30;;;2.40;;
21822;SDS011;11074;48.596;9.238;2023-06-24T15:00:37;3.05;;;2.40;;
21822;SDS011;11074;48.596;9.238;2023-06-24T15:03:03;2.90;;;2.28;;
21822;SDS011;11074;48.596;9.238;2023-06-24T15:05:28;4.60;;;2.53;;
21822;SDS011;11074;48.596;9.238;2023-06-24T15:07:54;3.30;;;2.65;;
21822;SDS011;11074;48.596;9.238;2023-06-24T15:10:20;3.17;;;2.42;;
21822;SDS011;11074;48.596;9.238;2023-06-24T15:12:45;4.68;;;2.80;;
21822;SDS011;11074;48.596;9.238;2023-06-24T15:15:11;3.85;;;2.92;;
21822;SDS011;11074;48.596;9.238;2023-06-24T15:17:37;3.35;;;2.75;;